Time;durP1;ratioP1;P1;durP2;ratioP2;P2;SDS_P1;SDS_P2;PMS_P1;PMS_P2;Temp;Humidity;BMP_temperature;BMP_pressure;BME280_temperature;BME280_humidity;BME280_pressure;Samples;Min_cycle;Max_cycle;Signal;HPM_P1;HPM_P2
2021/01/24 00:00:10;;;;;;;31.17;19.90;;;;;;;2.92;84.85;99494.27;1692465;83;21251;-88
2021/01/24 00:02:41;;;;;;;28.10;18.00;;;;;;;3.03;84.53;99482.60;1664565;84;21607;-88
2021/01/24 00:05:08;;;;;;;33.97;21.83;;;;;;;3.13;84.34;99493.83;1670673;84;21223;-88
2021/01/24 00:07:36;;;;;;;27.33;18.37;;;;;;;3.10;84.36;99493.64;1673630;84;21231;-88
2021/01/24 00:10:05;;;;;;;;;;;;;;;3.01;84.71;99481.44;1648239;85;21319;-86
2021/01/24 00:12:33;;;;;;;24.73;16.57;;;;;;;3.10;84.48;99486.25;1647163;83;20214;-86
2021/01/24 00:15:00;;;;;;;25.13;17.00;;;;;;;3.13;84.31;99480.67;1639442;85;21737;-89
2021/01/24 00:17:29;;;;;;;29.23;18.70;;;;;;;3.10;84.36;99475.21;1697464;83;21927;-86
2021/01/24 00:19:56;;;;;;;24.73;15.37;;;;;;;3.00;84.71;99464.52;1700272;82;21864;-87
2021/01/24 00:22:22;;;;;;;30.30;18.30;;;;;;;3.02;84.68;99475.20;1700801;82;21186;-88
2021/01/24 00:24:49;;;;;;;25.77;18.33;;;;;;;3.10;84.36;99462.05;1688363;83;21804;-88
2021/01/24 00:27:16;;;;;;;;;;;;;;;3.10;84.42;99459.41;1697476;84;21215;-87
2021/01/24 00:29:43;;;;;;;37.27;21.87;;;;;;;3.07;84.51;99453.64;1694295;83;20872;-85
2021/01/24 00:32:10;;;;;;;27.90;19.77;;;;;;;3.05;84.55;99459.56;1692822;83;21227;-88
2021/01/24 00:34:39;;;;;;;33.10;22.47;;;;;;;3.09;84.53;99456.97;1668582;83;21154;-88
2021/01/24 00:37:06;;;;;;;36.97;24.87;;;;;;;3.10;84.53;99449.38;1654889;86;21220;-87
2021/01/24 00:39:33;;;;;;;31.27;20.27;;;;;;;2.99;85.00;99435.20;1658228;85;21654;-86
2021/01/24 00:42:00;;;;;;;35.67;22.27;;;;;;;3.09;84.70;99452.52;1662006;85;21218;-85
2021/01/24 00:44:27;;;;;;;33.03;20.70;;;;;;;3.16;84.46;99443.45;1655926;85;21612;-86
2021/01/24 00:46:53;;;;;;;;;;;;;;;3.12;84.52;99444.27;1659447;85;21747;-87
2021/01/24 00:49:21;;;;;;;26.85;18.07;;;;;;;3.00;84.74;99417.94;1653604;84;20304;-86
2021/01/24 00:51:47;;;;;;;;;;;;;;;3.12;84.81;99435.55;1662394;85;22332;-86
2021/01/24 00:54:14;;;;;;;30.43;19.67;;;;;;;3.17;84.70;99434.59;1656344;84;20213;-88
2021/01/24 00:56:41;;;;;;;29.40;18.87;;;;;;;3.11;84.85;99432.61;1663165;84;21173;-82
2021/01/24 00:59:08;;;;;;;25.80;17.80;;;;;;;3.08;85.07;99424.52;1661246;84;21334;-85
2021/01/24 01:01:35;;;;;;;27.37;19.57;;;;;;;3.20;84.77;99419.79;1677782;83;21139;-84
2021/01/24 01:04:03;;;;;;;25.07;14.83;;;;;;;3.24;84.57;99417.16;1695682;83;21380;-87
2021/01/24 01:06:30;;;;;;;28.43;19.47;;;;;;;3.18;84.79;99420.42;1685631;83;21268;-87
2021/01/24 01:08:57;;;;;;;28.40;19.27;;;;;;;3.20;84.69;99407.94;1683933;83;21232;-86
2021/01/24 01:11:24;;;;;;;25.97;17.63;;;;;;;3.29;84.49;99408.24;1686633;82;21280;-85
2021/01/24 01:13:51;;;;;;;26.43;16.20;;;;;;;3.28;84.57;99401.84;1685693;83;21219;-88
2021/01/24 01:16:18;;;;;;;21.63;15.73;;;;;;;3.22;84.85;99409.06;1683427;83;21220;-87
2021/01/24 01:18:45;;;;;;;23.80;16.53;;;;;;;3.24;84.91;99411.04;1675778;83;21255;-86
2021/01/24 01:21:12;;;;;;;24.70;16.63;;;;;;;3.31;84.68;99407.61;1640537;84;21272;-87
2021/01/24 01:23:40;;;;;;;22.97;14.87;;;;;;;3.30;84.77;99403.83;1625132;85;21382;-87
2021/01/24 01:26:07;;;;;;;23.67;15.37;;;;;;;3.31;84.79;99398.87;1655140;85;21188;-85
2021/01/24 01:28:34;;;;;;;17.87;13.80;;;;;;;3.36;84.70;99397.08;1646800;86;21348;-85
2021/01/24 01:31:00;;;;;;;;;;;;;;;3.43;84.58;99398.88;1644854;86;21638;-85
2021/01/24 01:33:27;;;;;;;22.77;16.43;;;;;;;3.40;84.74;99400.52;1644783;85;20282;-86
2021/01/24 01:35:55;;;;;;;25.30;16.43;;;;;;;3.28;85.17;99401.34;1653804;85;21264;-87
2021/01/24 01:38:22;;;;;;;18.67;14.83;;;;;;;3.36;84.96;99405.80;1596970;89;21315;-92
2021/01/24 01:40:52;;;;;;;21.03;16.20;;;;;;;3.47;84.54;99402.83;1605799;85;21183;-92
2021/01/24 01:43:20;;;;;;;24.37;16.17;;;;;;;3.49;84.44;99406.62;1642752;84;21152;-93
2021/01/24 01:45:56;;;;;;;21.27;15.00;;;;;;;3.46;84.64;99395.08;1612387;86;21137;-89
2021/01/24 01:48:31;;;;;;;23.90;14.77;;;;;;;3.40;84.82;99404.47;1644954;85;21197;-93
2021/01/24 01:51:03;;;;;;;21.13;13.77;;;;;;;3.47;84.70;99404.64;1648646;84;21246;-94
2021/01/24 01:53:31;;;;;;;19.10;15.27;;;;;;;3.59;84.31;99413.84;1635754;86;21236;-93
2021/01/24 01:56:03;;;;;;;16.17;12.70;;;;;;;3.61;84.34;99395.24;1615305;86;21259;-92
2021/01/24 01:58:31;;;;;;;18.83;13.17;;;;;;;3.58;84.52;99396.88;1634879;86;21207;-91
2021/01/24 02:00:58;;;;;;;21.03;13.70;;;;;;;3.54;84.66;99389.80;1614212;86;21698;-92
2021/01/24 02:03:45;;;;;;;18.43;13.60;;;;;;;3.55;84.73;99390.14;1600126;87;21343;-90
2021/01/24 02:06:29;;;;;;;18.60;13.03;;;;;;;3.61;84.50;99389.47;1616140;87;21357;-90
2021/01/24 02:09:40;;;;;;;21.60;15.80;;;;;;;3.60;84.54;99397.06;1627393;87;21299;-88
2021/01/24 02:12:54;;;;;;;23.00;16.03;;;;;;;3.54;84.85;99387.66;1617234;87;21303;-90
2021/01/24 02:15:21;;;;;;;21.27;15.43;;;;;;;3.59;84.76;99383.54;1630802;85;21835;-89
2021/01/24 02:18:01;;;;;;;23.30;14.67;;;;;;;3.61;84.92;99385.52;1641237;85;21402;-90
2021/01/24 02:20:44;;;;;;;19.67;14.20;;;;;;;3.58;85.05;99368.73;1645046;85;21215;-91
2021/01/24 02:23:15;;;;;;;20.90;15.00;;;;;;;3.53;85.27;99368.91;1649878;85;21192;-90
2021/01/24 02:25:57;;;;;;;18.43;13.37;;;;;;;3.61;85.00;99357.03;1622042;86;21847;-92
2021/01/24 02:28:49;;;;;;;19.37;13.67;;;;;;;3.62;85.01;99367.41;1640892;85;21238;-90
2021/01/24 02:31:17;;;;;;;19.77;13.10;;;;;;;3.66;85.03;99359.99;1627447;86;21247;-91
2021/01/24 02:33:46;;;;;;;19.93;14.53;;;;;;;3.67;85.03;99358.52;1619894;85;21188;-91
2021/01/24 02:36:14;;;;;;;17.40;13.13;;;;;;;3.37;85.19;99315.25;1650362;85;21196;-94
2021/01/24 02:38:46;;;;;;;18.03;13.17;;;;;;;3.64;85.41;99348.30;1607781;86;21828;-92
2021/01/24 02:41:16;;;;;;;17.77;13.53;;;;;;;2.89;85.23;99228.23;1651856;85;21218;-95
2021/01/24 02:43:47;;;;;;;15.10;11.77;;;;;;;3.65;85.34;99357.83;1643251;84;21242;-95
2021/01/24 02:46:19;;;;;;;17.50;12.70;;;;;;;3.62;85.55;99355.55;1621963;85;21278;-95
2021/01/24 02:48:50;;;;;;;21.97;12.73;;;;;;;3.72;85.31;99354.55;1627323;86;21346;-93
2021/01/24 02:51:23;;;;;;;18.83;14.93;;;;;;;3.73;85.46;99349.11;1607963;86;21246;-95
2021/01/24 02:53:53;;;;;;;21.83;15.43;;;;;;;3.78;85.22;99352.05;1628076;86;21228;-93
2021/01/24 02:56:26;;;;;;;20.63;14.93;;;;;;;3.72;85.61;99349.28;1609180;84;21194;-95
2021/01/24 02:59:01;;;;;;;21.57;14.77;;;;;;;3.69;85.98;99349.94;1619997;86;21194;-94
2021/01/24 03:01:38;;;;;;;21.10;15.40;;;;;;;3.78;85.91;99340.69;1619246;85;21189;-94
2021/01/24 03:04:08;;;;;;;16.30;12.37;;;;;;;3.88;85.56;99346.58;1627082;84;21241;-94
2021/01/24 03:06:41;;;;;;;19.60;14.83;;;;;;;3.88;85.71;99354.02;1592026;86;21478;-92
2021/01/24 03:09:14;;;;;;;18.03;13.73;;;;;;;3.94;85.67;99345.92;1604636;87;21337;-93
2021/01/24 03:19:18;;;;;;;11.70;9.50;;;;;;;3.97;85.56;99332.38;1632151;84;21162;-95
2021/01/24 03:29:23;;;;;;;15.00;11.57;;;;;;;2.65;85.78;99111.16;1610432;86;21225;-95
2021/01/24 03:32:50;;;;;;;;;;;;;;;;;;;;;
2021/01/24 04:00:28;;;;;;;15.60;12.03;;;;;;;4.29;85.81;99289.23;1777860;77;21425;-94
2021/01/24 04:14:01;;;;;;;22.43;14.33;;;;;;;4.36;86.12;99277.48;1753662;77;960468;-86
2021/01/24 04:16:41;;;;;;;17.90;13.93;;;;;;;4.27;86.35;99275.88;1828284;77;23128;-89
2021/01/24 04:19:08;;;;;;;17.67;13.03;;;;;;;4.28;86.49;99282.30;1822580;78;21134;-86
2021/01/24 04:21:35;;;;;;;20.03;14.57;;;;;;;4.41;85.96;99279.10;1813479;77;21173;-87
2021/01/24 04:24:02;;;;;;;22.37;16.10;;;;;;;4.48;85.71;99276.57;1729361;78;21032;-87
2021/01/24 04:26:29;;;;;;;23.17;15.30;;;;;;;4.44;85.73;99284.02;1707817;82;21170;-84
2021/01/24 04:28:56;;;;;;;22.23;14.27;;;;;;;4.41;85.94;99275.66;1717654;83;21172;-85
2021/01/24 04:31:24;;;;;;;18.17;13.70;;;;;;;4.47;85.79;99271.80;1714179;82;21336;-93
2021/01/24 04:34:46;;;;;;;23.37;17.60;;;;;;;4.56;85.71;99270.41;1773032;78;23032;-94
2021/01/24 04:38:02;;;;;;;22.93;14.90;;;;;;;4.47;85.92;99271.80;1746494;80;21465;-93
2021/01/24 04:40:33;;;;;;;21.27;15.43;;;;;;;4.45;86.20;99272.48;1686412;81;21141;-86
2021/01/24 04:43:01;;;;;;;22.87;15.07;;;;;;;4.49;86.20;99263.20;1759329;80;21209;-85
2021/01/24 04:45:28;;;;;;;21.20;12.57;;;;;;;4.56;86.02;99259.86;1751588;80;21100;-87
2021/01/24 04:47:55;;;;;;;17.50;13.47;;;;;;;4.55;86.25;99270.92;1749217;80;21215;-85
2021/01/24 04:50:22;;;;;;;17.20;14.20;;;;;;;4.66;85.97;99268.38;1748602;80;21571;-83
2021/01/24 04:52:50;;;;;;;18.83;14.47;;;;;;;4.58;86.11;99261.34;1768902;79;21151;-88
2021/01/24 04:55:17;;;;;;;20.07;14.10;;;;;;;4.66;86.05;99265.74;1776861;79;21280;-89
2021/01/24 04:57:46;;;;;;;20.23;14.80;;;;;;;4.67;86.19;99259.45;1802900;77;21150;-91
2021/01/24 05:00:16;;;;;;;19.77;13.20;;;;;;;4.74;86.07;99257.75;1760335;78;21164;-89
2021/01/24 05:02:43;;;;;;;15.30;13.17;;;;;;;4.78;85.96;99244.52;1784339;80;21192;-89
2021/01/24 05:05:11;;;;;;;18.83;14.70;;;;;;;4.84;85.85;99243.83;1780348;80;21199;-91
2021/01/24 05:07:40;;;;;;;16.07;13.10;;;;;;;4.78;86.15;99243.70;1759186;80;21207;-92
2021/01/24 05:10:10;;;;;;;16.27;12.40;;;;;;;4.83;86.17;99244.00;1759409;80;21212;-90
2021/01/24 05:12:45;;;;;;;17.13;12.87;;;;;;;4.93;85.87;99243.23;1749033;79;21093;-90
2021/01/24 05:15:14;;;;;;;20.37;14.70;;;;;;;4.98;85.72;99259.38;1700476;83;21168;-91
2021/01/24 05:18:00;;;;;;;19.40;13.77;;;;;;;4.93;86.10;99245.87;1732999;81;21200;-90
2021/01/24 05:20:34;;;;;;;21.97;14.30;;;;;;;4.97;86.06;99246.34;1732762;82;21120;-90
2021/01/24 05:23:25;;;;;;;25.50;14.03;;;;;;;5.01;86.11;99257.70;1691727;82;21051;-92
2021/01/24 05:26:33;;;;;;;18.63;15.33;;;;;;;5.05;85.73;99243.65;1750795;80;21155;-92
2021/01/24 05:29:26;;;;;;;21.00;15.43;;;;;;;5.05;85.75;99247.10;1733176;82;21179;-95
2021/01/24 05:31:54;;;;;;;;;;;;;;;5.04;85.87;99244.63;1743059;81;21201;-89
2021/01/24 05:34:38;;;;;;;24.83;17.03;;;;;;;4.95;86.12;99235.95;1722117;79;20132;-88
2021/01/24 05:37:54;;;;;;;24.13;16.60;;;;;;;4.98;86.09;99231.64;1670609;83;21137;-96
2021/01/24 05:41:08;;;;;;;23.50;18.23;;;;;;;5.08;85.81;99237.98;1712294;79;21169;-95
2021/01/24 05:44:39;;;;;;;21.70;17.13;;;;;;;5.04;85.81;99228.78;1691458;82;22378;-96
2021/01/24 05:51:33;;;;;;;;;;;;;;;;;;;;;
2021/01/24 05:54:46;;;;;;;29.07;18.27;;;;;;;5.14;85.56;99243.89;1608442;83;21242;-94
2021/01/24 05:57:55;;;;;;;20.90;14.73;;;;;;;5.19;85.60;99240.70;1713519;80;21349;-89
2021/01/24 06:01:43;;;;;;;25.40;20.87;;;;;;;5.20;85.56;99232.59;1724286;79;21527;-87
2021/01/24 06:05:23;;;;;;;30.97;22.00;;;;;;;5.28;85.31;99229.56;1702666;80;23188;-96
2021/01/24 06:08:46;;;;;;;24.07;17.33;;;;;;;5.13;85.80;99210.55;1756344;77;21150;-93
2021/01/24 06:15:08;;;;;;;25.63;20.23;;;;;;;5.31;85.30;99208.85;1618053;84;21222;-93
2021/01/24 06:18:15;;;;;;;28.63;19.87;;;;;;;5.28;85.45;99207.10;1622043;87;21249;-94
2021/01/24 06:21:10;;;;;;;27.73;18.80;;;;;;;5.24;85.68;99210.61;1635798;82;21195;-94
2021/01/24 06:24:18;;;;;;;24.37;16.13;;;;;;;5.30;85.42;99200.63;1604161;84;21592;-95
2021/01/24 06:27:37;;;;;;;27.63;18.73;;;;;;;5.37;85.29;99213.91;1595114;86;21310;-92
2021/01/24 06:30:30;;;;;;;25.63;18.57;;;;;;;5.29;85.68;99205.58;1580893;89;21221;-92
2021/01/24 06:33:19;;;;;;;28.23;19.43;;;;;;;4.93;85.56;99139.44;1581496;86;21257;-90
2021/01/24 06:36:04;;;;;;;24.67;18.57;;;;;;;5.43;85.25;99203.95;1572065;89;21399;-94
2021/01/24 06:38:57;;;;;;;25.52;18.65;;;;;;;5.49;85.12;99203.22;1591877;88;21312;-93
2021/01/24 06:41:51;;;;;;;29.53;21.27;;;;;;;5.46;85.27;99210.17;1592713;86;21240;-91
2021/01/24 06:45:28;;;;;;;28.80;18.97;;;;;;;5.43;85.47;99201.31;1569694;88;21224;-89
2021/01/24 06:48:40;;;;;;;31.47;22.63;;;;;;;5.57;85.11;99203.11;1819632;77;22894;-93
2021/01/24 07:03:34;;;;;;;32.65;24.37;;;;;;;6.69;81.30;99203.23;1823419;77;26636;-90
2021/01/24 07:06:40;;;;;;;29.83;22.07;;;;;;;6.63;81.23;99207.97;1778179;79;21183;-90
2021/01/24 07:09:58;;;;;;;35.07;22.93;;;;;;;6.40;81.81;99201.05;1778914;79;21176;-88
2021/01/24 07:13:31;;;;;;;32.97;23.80;;;;;;;6.39;82.13;99200.72;1735152;80;27655;-93
2021/01/24 07:16:23;;;;;;;32.43;21.03;;;;;;;6.18;82.48;99195.42;1692468;83;21168;-92
2021/01/24 07:19:06;;;;;;;32.53;20.57;;;;;;;6.08;82.84;99210.25;1673851;84;21193;-90
2021/01/24 07:22:13;;;;;;;38.57;23.27;;;;;;;6.13;82.74;99196.48;1668142;83;21186;-92
2021/01/24 07:25:23;;;;;;;36.27;24.43;;;;;;;6.15;82.77;99201.08;1691417;83;21329;-89
2021/01/24 07:28:16;;;;;;;34.33;23.07;;;;;;;6.00;83.18;99212.51;1698986;83;21329;-91
2021/01/24 07:31:16;;;;;;;40.73;24.33;;;;;;;5.97;83.47;99182.97;1703343;83;21263;-88
2021/01/24 07:33:45;;;;;;;38.60;26.57;;;;;;;6.12;83.03;99190.86;1633738;83;21157;-90
2021/01/24 07:36:16;;;;;;;41.00;28.70;;;;;;;6.16;82.88;99194.28;1643142;87;21213;-90
2021/01/24 07:41:44;;;;;;;46.57;29.33;;;;;;;6.14;82.90;99185.72;1772974;78;23109;-91
2021/01/24 07:44:15;;;;;;;39.60;28.77;;;;;;;6.22;82.55;99190.06;1770446;79;21379;-84
2021/01/24 07:46:49;;;;;;;42.47;29.23;;;;;;;6.24;82.47;99192.83;1717162;82;21230;-86
2021/01/24 07:49:26;;;;;;;42.33;28.67;;;;;;;6.28;82.37;99185.34;1721398;81;21199;-86
2021/01/24 07:52:09;;;;;;;39.58;31.25;;;;;;;6.30;82.50;99182.00;1755880;79;28182;-89
2021/01/24 07:54:37;;;;;;;38.27;25.27;;;;;;;6.46;82.07;99186.23;1771792;80;21302;-90
2021/01/24 07:57:19;;;;;;;33.35;27.58;;;;;;;6.60;81.12;99192.45;1682417;80;21060;-89
2021/01/24 08:00:06;;;;;;;40.73;27.30;;;;;;;6.60;81.15;99185.83;1718782;81;21200;-91
2021/01/24 08:06:16;;;;;;;;;;;;;;;;;;;;;
2021/01/24 08:08:55;;;;;;;40.50;28.33;;;;;;;6.63;81.07;99175.69;1828690;76;23706;-89
2021/01/24 08:11:22;;;;;;;41.93;27.53;;;;;;;6.47;81.26;99167.19;1798418;77;21173;-87
2021/01/24 08:13:51;;;;;;;38.93;26.00;;;;;;;6.45;81.58;99175.31;1780729;78;21322;-92
2021/01/24 08:16:43;;;;;;;41.77;27.43;;;;;;;6.56;81.32;99177.45;1779379;78;22363;-88
2021/01/24 08:19:37;;;;;;;41.87;30.33;;;;;;;6.56;81.05;99177.45;1792605;78;21216;-90
2021/01/24 08:22:17;;;;;;;33.02;25.80;;;;;;;6.52;81.32;99176.72;1773178;78;21189;-91
2021/01/24 08:25:29;;;;;;;39.33;30.15;;;;;;;6.62;81.24;99156.02;1785701;78;28805;-92
2021/01/24 08:28:19;;;;;;;;;;;;;;;;;;;;;
2021/01/24 08:31:04;;;;;;;35.70;24.10;;;;;;;6.89;80.06;99145.09;1775983;80;21299;-92
2021/01/24 08:33:55;;;;;;;40.27;27.13;;;;;;;6.82;80.04;99166.25;1727032;80;21666;-92
2021/01/24 08:36:28;;;;;;;50.60;28.77;;;;;;;6.75;80.30;99157.44;1735640;81;21880;-93
2021/01/24 08:42:18;;;;;;;34.63;26.10;;;;;;;6.75;80.48;99152.14;1803592;78;28123;-92
2021/01/24 08:45:01;;;;;;;37.07;24.43;;;;;;;6.92;79.79;99142.58;1755142;78;21076;-90
2021/01/24 08:47:32;;;;;;;30.33;19.20;;;;;;;7.04;79.37;99146.83;1723238;82;21333;-91
2021/01/24 08:50:11;;;;;;;29.03;20.07;;;;;;;7.04;79.26;99138.88;1714664;82;21189;-92
2021/01/24 08:52:42;;;;;;;29.90;20.57;;;;;;;7.00;79.24;99129.17;1720275;82;21287;-92
2021/01/24 08:55:54;;;;;;;35.97;20.70;;;;;;;6.95;79.40;99140.85;1666131;84;21283;-91
2021/01/24 08:58:42;;;;;;;26.60;19.90;;;;;;;6.78;80.00;99124.44;1653702;85;21189;-94
2021/01/24 09:01:19;;;;;;;30.73;21.27;;;;;;;6.82;79.94;99138.95;1616995;86;21256;-95
2021/01/24 09:04:34;;;;;;;31.73;21.67;;;;;;;6.89;79.69;99142.95;1694164;82;21239;-93
2021/01/24 09:07:17;;;;;;;34.00;22.43;;;;;;;6.87;79.80;99134.39;1662595;82;21510;-92
2021/01/24 09:10:31;;;;;;;36.60;22.33;;;;;;;6.86;79.86;99133.58;1703276;82;21212;-95
2021/01/24 09:13:39;;;;;;;30.60;22.67;;;;;;;7.00;79.44;99149.05;1665846;83;21141;-93
2021/01/24 09:16:13;;;;;;;41.03;22.77;;;;;;;6.93;79.48;99128.31;1691253;83;21135;-92
2021/01/24 09:43:09;;;;;;;27.50;20.77;;;;;;;8.13;75.92;99113.67;1770975;77;23178;-93
2021/01/24 09:46:35;;;;;;;26.67;22.03;;;;;;;8.11;75.02;99114.91;1784401;79;21431;-94
2021/01/24 10:29:27;;;;;;;30.00;18.70;;;;;;;7.44;77.18;99072.31;1798799;77;22501;-96
2021/01/24 10:32:44;;;;;;;25.60;18.23;;;;;;;7.53;76.77;99081.70;1744191;80;21312;-92
2021/01/24 10:35:37;;;;;;;28.10;17.60;;;;;;;7.56;76.42;99070.70;1719721;81;21203;-93
2021/01/24 10:38:33;;;;;;;26.47;17.20;;;;;;;7.59;76.47;99057.05;1750666;80;21250;-93
2021/01/24 11:11:33;;;;;;;26.03;18.93;;;;;;;8.02;74.70;99035.17;1788357;78;23392;-89
2021/01/24 11:14:14;;;;;;;22.30;16.40;;;;;;;7.88;74.93;99029.05;1725729;81;21207;-93
2021/01/24 11:16:58;;;;;;;23.97;15.80;;;;;;;7.98;74.84;99047.51;1713734;82;21191;-90
2021/01/24 11:19:30;;;;;;;21.30;14.17;;;;;;;8.09;74.47;99041.30;1708290;81;21672;-91
2021/01/24 11:22:06;;;;;;;22.53;13.97;;;;;;;8.05;74.46;99024.97;1717054;81;21485;-89
2021/01/24 11:24:55;;;;;;;20.30;13.43;;;;;;;8.04;74.49;99031.80;1693747;83;21211;-90
2021/01/24 11:27:29;;;;;;;16.27;13.87;;;;;;;8.20;74.27;99030.08;1714827;82;22171;-91
2021/01/24 11:30:37;;;;;;;24.13;15.27;;;;;;;8.28;73.79;99027.72;1683203;84;21697;-94
2021/01/24 11:33:14;;;;;;;22.57;17.00;;;;;;;8.24;73.85;99015.37;1723900;81;21215;-93
2021/01/24 11:35:51;;;;;;;22.97;15.97;;;;;;;8.24;73.83;99018.55;1686713;84;21373;-92
2021/01/24 11:38:35;;;;;;;27.57;17.97;;;;;;;8.31;73.49;99032.63;1653750;84;21215;-91
2021/01/24 11:41:05;;;;;;;24.47;16.33;;;;;;;8.33;73.48;99018.12;1714439;81;21356;-93
2021/01/24 11:43:32;;;;;;;24.53;15.63;;;;;;;8.28;73.57;99012.60;1702319;83;21204;-90
2021/01/24 11:46:01;;;;;;;17.80;12.77;;;;;;;8.41;73.41;99012.30;1676431;83;21680;-92
2021/01/24 11:48:44;;;;;;;19.93;13.47;;;;;;;8.50;72.98;99011.09;1681370;83;21457;-89
2021/01/24 11:51:11;;;;;;;20.50;16.17;;;;;;;8.53;72.95;99010.66;1715184;82;21229;-88
2021/01/24 11:53:40;;;;;;;16.30;13.87;;;;;;;8.51;73.10;99011.38;1717752;81;21887;-92
2021/01/24 11:56:28;;;;;;;24.23;15.53;;;;;;;8.58;72.95;99002.37;1768877;79;23216;-91
2021/01/24 11:59:10;;;;;;;24.93;15.43;;;;;;;8.56;72.71;99007.59;1755063;80;21489;-91
2021/01/24 12:02:24;;;;;;;17.17;13.83;;;;;;;8.56;72.88;99004.42;1646146;85;21252;-94
2021/01/24 12:04:58;;;;;;;23.90;16.20;;;;;;;8.70;72.48;98999.91;1652550;85;21192;-96
2021/01/24 12:08:07;;;;;;;21.03;16.93;;;;;;;8.76;72.22;99005.70;1641966;86;21390;-95
2021/01/24 12:10:57;;;;;;;24.10;16.33;;;;;;;8.69;72.51;99012.88;1631365;86;21280;-93
2021/01/24 12:13:30;;;;;;;21.90;15.13;;;;;;;8.77;72.48;98994.04;1640782;86;21342;-94
2021/01/24 12:16:25;;;;;;;20.40;15.10;;;;;;;8.79;72.31;98997.02;1629343;86;21632;-93
2021/01/24 12:18:58;;;;;;;25.50;15.77;;;;;;;8.76;72.46;98983.12;1634561;86;21229;-94
2021/01/24 12:21:30;;;;;;;16.20;10.47;;;;;;;8.75;72.46;98990.78;1633751;86;21292;-93
2021/01/24 12:24:20;;;;;;;18.13;11.30;;;;;;;8.85;72.14;98970.41;1633835;86;21201;-92
2021/01/24 12:27:12;;;;;;;20.90;12.33;;;;;;;8.91;71.96;98992.17;1632439;88;21177;-93
2021/01/24 12:29:43;;;;;;;20.07;12.63;;;;;;;8.88;72.09;98980.63;1637932;86;21238;-94
2021/01/24 12:32:19;;;;;;;24.13;13.97;;;;;;;8.93;71.99;98985.32;1620184;86;21281;-89
2021/01/24 12:34:51;;;;;;;20.90;13.80;;;;;;;9.00;71.62;98979.96;1636419;85;21134;-91
2021/01/24 12:37:28;;;;;;;21.37;16.30;;;;;;;8.99;71.67;98979.16;1634358;86;21250;-94
2021/01/24 12:40:03;;;;;;;21.60;14.07;;;;;;;8.97;71.83;98978.55;1636112;86;21202;-93
2021/01/24 12:42:34;;;;;;;18.97;14.87;;;;;;;9.04;71.68;98981.16;1639579;86;21162;-94
2021/01/24 12:45:02;;;;;;;21.93;15.30;;;;;;;9.07;71.51;98996.70;1616120;85;21263;-94
2021/01/24 12:47:30;;;;;;;19.90;14.27;;;;;;;9.03;71.64;98997.63;1585287;89;21244;-94
2021/01/24 12:50:02;;;;;;;19.17;13.60;;;;;;;8.97;71.91;98991.84;1590335;89;21207;-92
2021/01/24 12:52:33;;;;;;;22.40;16.37;;;;;;;9.08;71.71;98993.84;1589980;87;21433;-93
2021/01/24 12:55:18;;;;;;;19.10;15.38;;;;;;;9.13;71.60;99007.29;1586045;87;21223;-89
2021/01/24 12:57:52;;;;;;;21.63;14.07;;;;;;;9.01;71.87;99004.20;1582139;89;21225;-93
2021/01/24 13:00:44;;;;;;;15.83;12.33;;;;;;;8.99;72.04;99008.91;1582839;86;21249;-93
2021/01/24 13:03:26;;;;;;;14.93;11.93;;;;;;;9.05;71.89;98996.09;1592480;89;21281;-96
2021/01/24 13:09:16;;;;;;;15.20;8.83;;;;;;;9.00;72.11;98995.39;1799718;77;23168;-90
2021/01/24 13:11:44;;;;;;;12.13;9.07;;;;;;;9.06;72.01;98995.89;1730241;79;21276;-91
2021/01/24 13:14:19;;;;;;;14.23;10.70;;;;;;;9.10;71.81;99001.09;1699962;81;21112;-93
2021/01/24 13:17:10;;;;;;;15.93;10.60;;;;;;;8.99;72.04;98997.76;1707794;81;21833;-95
2021/01/24 13:20:18;;;;;;;10.17;9.13;;;;;;;8.96;72.23;99002.96;1668250;83;21214;-94
2021/01/24 13:22:51;;;;;;;11.30;7.95;;;;;;;9.03;72.01;99004.28;1644728;83;21169;-94
2021/01/24 13:25:45;;;;;;;15.17;9.90;;;;;;;9.06;71.90;99006.53;1663329;83;21318;-93
2021/01/24 13:28:13;;;;;;;13.03;7.60;;;;;;;8.95;72.21;99009.84;1644971;82;21224;-93
2021/01/24 13:30:55;;;;;;;14.83;8.40;;;;;;;8.96;72.35;99011.45;1591095;86;21187;-93
2021/01/24 13:33:25;;;;;;;12.53;9.03;;;;;;;9.03;72.24;99003.47;1596239;85;21198;-93
2021/01/24 13:36:21;;;;;;;13.13;8.18;;;;;;;8.99;72.69;99007.58;1718034;77;28432;-95
2021/01/24 13:39:44;;;;;;;9.30;7.00;;;;;;;9.05;72.75;99021.35;1660473;83;21202;-91
2021/01/24 13:45:35;;;;;;;16.13;8.90;;;;;;;9.03;73.21;99010.92;1664360;81;21673;-90
2021/01/24 13:48:02;;;;;;;13.60;8.30;;;;;;;8.85;74.01;99008.93;1651060;85;21323;-92
2021/01/24 13:50:29;;;;;;;11.50;8.37;;;;;;;8.84;74.35;99011.82;1662889;85;21223;-94
2021/01/24 13:52:56;;;;;;;12.30;7.87;;;;;;;8.84;74.44;99007.84;1614467;87;21446;-90
2021/01/24 13:55:28;;;;;;;11.00;8.33;;;;;;;8.77;74.81;99009.17;1664886;85;21091;-93
2021/01/24 13:57:55;;;;;;;13.43;8.07;;;;;;;8.72;75.03;99017.78;1654628;85;21205;-89
2021/01/24 14:00:27;;;;;;;12.27;8.10;;;;;;;8.70;75.23;99015.84;1673116;84;21139;-90
2021/01/24 14:02:56;;;;;;;9.10;7.93;;;;;;;8.70;75.18;99005.22;1649854;86;21743;-91
2021/01/24 14:05:24;;;;;;;12.50;7.53;;;;;;;8.61;75.63;99009.61;1647265;86;21267;-87
2021/01/24 14:07:52;;;;;;;14.40;8.17;;;;;;;8.62;75.74;99009.93;1634952;86;21674;-90
2021/01/24 14:10:21;;;;;;;13.23;9.00;;;;;;;8.66;75.60;99009.81;1648132;86;21207;-91
2021/01/24 14:12:49;;;;;;;21.30;10.20;;;;;;;8.62;75.83;99013.39;1674482;82;21249;-90
2021/01/24 14:15:23;;;;;;;15.57;9.57;;;;;;;8.53;76.21;99001.36;1701105;84;21190;-91
2021/01/24 14:18:05;;;;;;;16.27;9.30;;;;;;;8.58;76.24;99001.56;1674763;84;21195;-90
2021/01/24 14:20:46;;;;;;;15.13;10.33;;;;;;;8.60;76.09;99006.15;1676207;84;21294;-90
2021/01/24 14:23:16;;;;;;;11.13;9.33;;;;;;;8.50;76.52;99005.78;1620890;86;21327;-91
2021/01/24 14:25:43;;;;;;;12.97;9.47;;;;;;;8.54;76.45;99006.98;1642578;85;21228;-89
2021/01/24 14:28:18;;;;;;;12.40;9.87;;;;;;;8.60;76.19;98999.51;1637550;86;21325;-90
2021/01/24 14:30:45;;;;;;;18.93;11.43;;;;;;;8.52;76.33;99011.17;1646590;86;21188;-91
2021/01/24 14:33:12;;;;;;;12.60;9.80;;;;;;;8.50;76.43;99015.07;1653886;83;21312;-91
2021/01/24 14:35:41;;;;;;;16.90;9.30;;;;;;;8.51;76.35;99009.56;1631953;86;21256;-88
2021/01/24 14:38:09;;;;;;;9.57;8.07;;;;;;;8.55;76.25;99008.12;1630123;86;21370;-92
2021/01/24 14:40:39;;;;;;;14.60;10.10;;;;;;;8.52;76.40;99011.70;1640720;86;21231;-89
2021/01/24 14:43:10;;;;;;;13.13;9.53;;;;;;;8.44;76.71;99011.89;1633252;86;21199;-90
2021/01/24 14:45:40;;;;;;;10.30;8.83;;;;;;;8.50;76.76;99017.73;1633346;83;21118;-92
2021/01/24 14:48:35;;;;;;;17.70;13.60;;;;;;;8.56;76.54;99023.53;1648545;86;21161;-90
2021/01/24 14:51:06;;;;;;;16.30;14.27;;;;;;;8.48;76.80;99019.78;1637061;86;21791;-93
2021/01/24 14:53:39;;;;;;;13.77;12.40;;;;;;;8.42;77.07;99025.89;1613211;86;21162;-90
2021/01/24 14:56:17;;;;;;;13.95;12.53;;;;;;;8.64;76.88;99023.30;1751762;78;28335;-90
2021/01/24 14:58:51;;;;;;;14.93;12.23;;;;;;;8.64;76.88;99023.30;1722859;81;22070;-89
2021/01/24 15:01:18;;;;;;;11.83;10.50;;;;;;;8.68;76.33;99041.81;1746725;78;21436;-92
2021/01/24 15:04:00;;;;;;;13.93;10.67;;;;;;;8.64;76.56;99038.42;1742478;81;21316;-91
2021/01/24 15:06:38;;;;;;;11.77;10.10;;;;;;;8.60;76.81;99031.38;1722546;81;21791;-92
2021/01/24 15:09:06;;;;;;;10.93;9.10;;;;;;;8.48;77.40;99041.83;1719399;81;21154;-91
2021/01/24 15:11:34;;;;;;;14.60;8.37;;;;;;;8.41;77.90;99036.19;1729883;80;21213;-92
2021/01/24 15:14:08;;;;;;;10.67;8.63;;;;;;;8.47;77.76;99040.70;1721597;82;21722;-91
2021/01/24 15:16:40;;;;;;;8.83;7.60;;;;;;;8.15;78.13;99006.78;1709571;82;21297;-91
2021/01/24 15:19:07;;;;;;;12.60;8.60;;;;;;;8.27;78.62;99042.84;1719567;82;21593;-93
2021/01/24 15:21:34;;;;;;;16.30;8.27;;;;;;;8.32;78.58;99042.21;1737214;82;21207;-92
2021/01/24 15:24:12;;;;;;;13.33;10.10;;;;;;;8.33;78.54;99041.20;1667735;83;21085;-90
2021/01/24 15:26:45;;;;;;;10.83;9.37;;;;;;;8.10;78.72;99029.66;1680193;84;21244;-93
2021/01/24 15:29:13;;;;;;;16.00;10.90;;;;;;;8.19;79.01;99050.50;1635537;84;21186;-91
2021/01/24 15:31:42;;;;;;;12.03;10.77;;;;;;;8.11;79.41;99051.20;1664149;85;21385;-92
2021/01/24 15:34:14;;;;;;;11.90;8.77;;;;;;;8.17;79.43;99057.86;1666601;84;21068;-90